sensor_id;sensor_type;location;lat;lon;timestamp;P1;durP1;ratioP1;P2;durP2;ratioP2
8458;SDS011;4266;48.816;9.154;2023-12-07T00:02:18;8.33;;;7.53;;
8458;SDS011;4266;48.816;9.154;2023-12-07T00:04:44;8.40;;;7.57;;
8458;SDS011;4266;48.816;9.154;2023-12-07T00:07:10;9.93;;;8.93;;
8458;SDS011;4266;48.816;9.154;2023-12-07T00:09:35;8.77;;;7.97;;
8458;SDS011;4266;48.816;9.154;2023-12-07T00:12:01;8.40;;;7.60;;
8458;SDS011;4266;48.816;9.154;2023-12-07T00:14:27;8.60;;;7.70;;
8458;SDS011;4266;48.816;9.154;2023-12-07T00:16:53;9.03;;;7.67;;
8458;SDS011;4266;48.816;9.154;2023-12-07T00:19:19;9.27;;;7.43;;
8458;SDS011;4266;48.816;9.154;2023-12-07T00:21:44;8.67;;;7.83;;
8458;SDS011;4266;48.816;9.154;2023-12-07T00:24:10;9.43;;;8.50;;
8458;SDS011;4266;48.816;9.154;2023-12-07T00:26:36;8.83;;;8.03;;
8458;SDS011;4266;48.816;9.154;2023-12-07T00:29:02;9.40;;;8.47;;
8458;SDS011;4266;48.816;9.154;2023-12-07T00:31:28;10.63;;;8.13;;
8458;SDS011;4266;48.816;9.154;2023-12-07T00:33:54;9.97;;;8.20;;
8458;SDS011;4266;48.816;9.154;2023-12-07T00:36:19;8.97;;;8.07;;
8458;SDS011;4266;48.816;9.154;2023-12-07T00:38:45;9.50;;;8.70;;
8458;SDS011;4266;48.816;9.154;2023-12-07T00:41:11;8.40;;;7.60;;
8458;SDS011;4266;48.816;9.154;2023-12-07T00:43:37;8.87;;;7.97;;
8458;SDS011;4266;48.816;9.154;2023-12-07T00:46:03;9.10;;;8.27;;
8458;SDS011;4266;48.816;9.154;2023-12-07T00:48:29;9.87;;;8.87;;
8458;SDS011;4266;48.816;9.154;2023-12-07T00:50:55;9.13;;;8.30;;
8458;SDS011;4266;48.816;9.154;2023-12-07T00:53:21;9.47;;;8.57;;
8458;SDS011;4266;48.816;9.154;2023-12-07T00:55:47;8.73;;;7.73;;
8458;SDS011;4266;48.816;9.154;2023-12-07T00:58:14;9.17;;;8.27;;
8458;SDS011;4266;48.816;9.154;2023-12-07T01:00:39;8.67;;;7.87;;
8458;SDS011;4266;48.816;9.154;2023-12-07T01:03:05;9.63;;;8.63;;
8458;SDS011;4266;48.816;9.154;2023-12-07T01:05:31;9.10;;;8.30;;
8458;SDS011;4266;48.816;9.154;2023-12-07T01:07:57;9.10;;;8.30;;
8458;SDS011;4266;48.816;9.154;2023-12-07T01:10:24;9.87;;;7.73;;
8458;SDS011;4266;48.816;9.154;2023-12-07T01:12:50;8.77;;;7.97;;
8458;SDS011;4266;48.816;9.154;2023-12-07T01:15:16;9.47;;;8.60;;
8458;SDS011;4266;48.816;9.154;2023-12-07T01:17:42;8.77;;;7.87;;
8458;SDS011;4266;48.816;9.154;2023-12-07T01:20:14;8.40;;;7.50;;
8458;SDS011;4266;48.816;9.154;2023-12-07T01:22:40;9.10;;;8.33;;
8458;SDS011;4266;48.816;9.154;2023-12-07T01:25:06;8.03;;;7.17;;
8458;SDS011;4266;48.816;9.154;2023-12-07T01:27:32;12.13;;;7.83;;
8458;SDS011;4266;48.816;9.154;2023-12-07T01:29:58;8.03;;;7.33;;
8458;SDS011;4266;48.816;9.154;2023-12-07T01:32:23;14.40;;;8.37;;
8458;SDS011;4266;48.816;9.154;2023-12-07T01:34:49;9.07;;;8.27;;
8458;SDS011;4266;48.816;9.154;2023-12-07T01:37:15;8.87;;;8.00;;
8458;SDS011;4266;48.816;9.154;2023-12-07T01:39:41;8.80;;;7.90;;
8458;SDS011;4266;48.816;9.154;2023-12-07T01:42:07;8.67;;;7.90;;
8458;SDS011;4266;48.816;9.154;2023-12-07T01:44:32;8.80;;;7.87;;
8458;SDS011;4266;48.816;9.154;2023-12-07T01:46:58;10.00;;;7.77;;
8458;SDS011;4266;48.816;9.154;2023-12-07T01:49:24;8.80;;;8.03;;
8458;SDS011;4266;48.816;9.154;2023-12-07T01:51:50;8.80;;;7.90;;
8458;SDS011;4266;48.816;9.154;2023-12-07T01:54:16;10.37;;;9.43;;
8458;SDS011;4266;48.816;9.154;2023-12-07T01:56:42;9.63;;;8.60;;
8458;SDS011;4266;48.816;9.154;2023-12-07T01:59:07;8.83;;;8.03;;
8458;SDS011;4266;48.816;9.154;2023-12-07T02:01:33;9.10;;;8.30;;
8458;SDS011;4266;48.816;9.154;2023-12-07T02:03:59;8.87;;;8.07;;
8458;SDS011;4266;48.816;9.154;2023-12-07T02:06:25;9.13;;;8.20;;
8458;SDS011;4266;48.816;9.154;2023-12-07T02:08:51;9.23;;;8.43;;
8458;SDS011;4266;48.816;9.154;2023-12-07T02:11:17;8.77;;;7.97;;
8458;SDS011;4266;48.816;9.154;2023-12-07T02:13:43;8.80;;;7.90;;
8458;SDS011;4266;48.816;9.154;2023-12-07T02:16:13;10.13;;;8.37;;
8458;SDS011;4266;48.816;9.154;2023-12-07T02:18:40;10.60;;;8.00;;
8458;SDS011;4266;48.816;9.154;2023-12-07T02:21:11;9.67;;;8.73;;
8458;SDS011;4266;48.816;9.154;2023-12-07T02:23:37;8.57;;;7.87;;
8458;SDS011;4266;48.816;9.154;2023-12-07T02:26:03;10.50;;;8.57;;
8458;SDS011;4266;48.816;9.154;2023-12-07T02:28:30;9.80;;;8.37;;
8458;SDS011;4266;48.816;9.154;2023-12-07T02:30:55;9.50;;;8.70;;
8458;SDS011;4266;48.816;9.154;2023-12-07T02:33:21;9.70;;;8.80;;
8458;SDS011;4266;48.816;9.154;2023-12-07T02:35:47;9.83;;;8.93;;
8458;SDS011;4266;48.816;9.154;2023-12-07T02:38:12;11.30;;;9.90;;
8458;SDS011;4266;48.816;9.154;2023-12-07T02:40:39;10.57;;;9.47;;
8458;SDS011;4266;48.816;9.154;2023-12-07T02:43:04;9.73;;;8.83;;
8458;SDS011;4266;48.816;9.154;2023-12-07T02:45:30;10.40;;;9.47;;
8458;SDS011;4266;48.816;9.154;2023-12-07T02:47:57;15.37;;;12.07;;
8458;SDS011;4266;48.816;9.154;2023-12-07T02:50:21;20.20;;;14.97;;
8458;SDS011;4266;48.816;9.154;2023-12-07T02:52:47;21.57;;;16.40;;
8458;SDS011;4266;48.816;9.154;2023-12-07T02:55:13;22.57;;;15.93;;
8458;SDS011;4266;48.816;9.154;2023-12-07T02:57:39;13.70;;;11.50;;
8458;SDS011;4266;48.816;9.154;2023-12-07T03:00:05;12.27;;;10.20;;
8458;SDS011;4266;48.816;9.154;2023-12-07T03:02:33;11.60;;;10.50;;
8458;SDS011;4266;48.816;9.154;2023-12-07T03:04:59;12.40;;;9.47;;
8458;SDS011;4266;48.816;9.154;2023-12-07T03:07:25;10.43;;;9.23;;
8458;SDS011;4266;48.816;9.154;2023-12-07T03:09:51;10.47;;;8.97;;
8458;SDS011;4266;48.816;9.154;2023-12-07T03:12:17;10.13;;;9.20;;
8458;SDS011;4266;48.816;9.154;2023-12-07T03:14:43;10.27;;;9.27;;
8458;SDS011;4266;48.816;9.154;2023-12-07T03:17:09;10.20;;;9.20;;
8458;SDS011;4266;48.816;9.154;2023-12-07T03:19:37;9.93;;;8.93;;
8458;SDS011;4266;48.816;9.154;2023-12-07T03:22:04;10.80;;;9.40;;
8458;SDS011;4266;48.816;9.154;2023-12-07T03:24:29;13.37;;;9.67;;
8458;SDS011;4266;48.816;9.154;2023-12-07T03:26:56;13.67;;;9.83;;
8458;SDS011;4266;48.816;9.154;2023-12-07T03:29:21;11.13;;;9.93;;
8458;SDS011;4266;48.816;9.154;2023-12-07T03:31:47;12.00;;;10.63;;
8458;SDS011;4266;48.816;9.154;2023-12-07T03:34:13;12.63;;;10.40;;
8458;SDS011;4266;48.816;9.154;2023-12-07T03:36:38;13.93;;;10.17;;
8458;SDS011;4266;48.816;9.154;2023-12-07T03:39:04;10.53;;;9.43;;
8458;SDS011;4266;48.816;9.154;2023-12-07T03:41:30;10.20;;;9.07;;
8458;SDS011;4266;48.816;9.154;2023-12-07T03:43:56;11.73;;;9.47;;
8458;SDS011;4266;48.816;9.154;2023-12-07T03:46:22;10.27;;;9.00;;
8458;SDS011;4266;48.816;9.154;2023-12-07T03:48:47;10.67;;;9.57;;
8458;SDS011;4266;48.816;9.154;2023-12-07T03:51:14;10.17;;;9.17;;
8458;SDS011;4266;48.816;9.154;2023-12-07T03:53:41;10.63;;;9.37;;
8458;SDS011;4266;48.816;9.154;2023-12-07T03:56:07;12.33;;;9.73;;
8458;SDS011;4266;48.816;9.154;2023-12-07T03:58:33;10.33;;;9.33;;
8458;SDS011;4266;48.816;9.154;2023-12-07T04:01:00;10.60;;;9.50;;
8458;SDS011;4266;48.816;9.154;2023-12-07T04:03:25;12.53;;;9.27;;
8458;SDS011;4266;48.816;9.154;2023-12-07T04:05:58;10.47;;;9.33;;
8458;SDS011;4266;48.816;9.154;2023-12-07T04:08:24;11.40;;;10.20;;
8458;SDS011;4266;48.816;9.154;2023-12-07T04:10:49;14.07;;;9.97;;
8458;SDS011;4266;48.816;9.154;2023-12-07T04:13:16;13.30;;;10.70;;
8458;SDS011;4266;48.816;9.154;2023-12-07T04:15:41;10.97;;;9.73;;
8458;SDS011;4266;48.816;9.154;2023-12-07T04:18:07;12.57;;;9.40;;
8458;SDS011;4266;48.816;9.154;2023-12-07T04:20:33;10.50;;;9.33;;
8458;SDS011;4266;48.816;9.154;2023-12-07T04:22:58;11.20;;;9.33;;
8458;SDS011;4266;48.816;9.154;2023-12-07T04:25:25;11.40;;;9.43;;
8458;SDS011;4266;48.816;9.154;2023-12-07T04:27:50;12.60;;;9.47;;
8458;SDS011;4266;48.816;9.154;2023-12-07T04:30:16;12.97;;;9.33;;
8458;SDS011;4266;48.816;9.154;2023-12-07T04:32:42;11.60;;;8.73;;
8458;SDS011;4266;48.816;9.154;2023-12-07T04:35:07;12.07;;;10.07;;
8458;SDS011;4266;48.816;9.154;2023-12-07T04:37:33;11.83;;;10.03;;
8458;SDS011;4266;48.816;9.154;2023-12-07T04:39:59;11.17;;;9.97;;
8458;SDS011;4266;48.816;9.154;2023-12-07T04:42:25;14.33;;;10.07;;
8458;SDS011;4266;48.816;9.154;2023-12-07T04:44:51;11.90;;;9.93;;
8458;SDS011;4266;48.816;9.154;2023-12-07T04:47:16;12.60;;;10.47;;
8458;SDS011;4266;48.816;9.154;2023-12-07T04:49:42;11.00;;;9.90;;
8458;SDS011;4266;48.816;9.154;2023-12-07T04:52:07;10.93;;;9.77;;
8458;SDS011;4266;48.816;9.154;2023-12-07T04:54:34;11.13;;;10.03;;
8458;SDS011;4266;48.816;9.154;2023-12-07T04:57:00;11.67;;;10.43;;
8458;SDS011;4266;48.816;9.154;2023-12-07T04:59:25;12.77;;;10.53;;
8458;SDS011;4266;48.816;9.154;2023-12-07T05:01:51;14.40;;;10.50;;
8458;SDS011;4266;48.816;9.154;2023-12-07T05:04:17;12.53;;;10.13;;
8458;SDS011;4266;48.816;9.154;2023-12-07T05:06:43;10.37;;;9.27;;
8458;SDS011;4266;48.816;9.154;2023-12-07T05:09:09;11.70;;;9.70;;
8458;SDS011;4266;48.816;9.154;2023-12-07T05:11:35;12.60;;;9.93;;
8458;SDS011;4266;48.816;9.154;2023-12-07T05:14:01;12.07;;;10.80;;
8458;SDS011;4266;48.816;9.154;2023-12-07T05:16:27;11.20;;;10.10;;
8458;SDS011;4266;48.816;9.154;2023-12-07T05:18:53;13.80;;;10.33;;
8458;SDS011;4266;48.816;9.154;2023-12-07T05:21:19;19.83;;;10.77;;
8458;SDS011;4266;48.816;9.154;2023-12-07T05:23:46;11.87;;;10.50;;
8458;SDS011;4266;48.816;9.154;2023-12-07T05:26:11;12.40;;;10.27;;
8458;SDS011;4266;48.816;9.154;2023-12-07T05:28:38;14.73;;;11.83;;
8458;SDS011;4266;48.816;9.154;2023-12-07T05:31:03;14.37;;;10.97;;
8458;SDS011;4266;48.816;9.154;2023-12-07T05:33:30;12.40;;;10.80;;
8458;SDS011;4266;48.816;9.154;2023-12-07T05:35:55;12.03;;;10.43;;
8458;SDS011;4266;48.816;9.154;2023-12-07T05:38:22;14.33;;;11.43;;
8458;SDS011;4266;48.816;9.154;2023-12-07T05:40:47;12.20;;;10.90;;
8458;SDS011;4266;48.816;9.154;2023-12-07T05:43:14;12.43;;;10.73;;
8458;SDS011;4266;48.816;9.154;2023-12-07T05:45:39;13.77;;;11.07;;
8458;SDS011;4266;48.816;9.154;2023-12-07T05:48:05;11.73;;;10.53;;
8458;SDS011;4266;48.816;9.154;2023-12-07T05:50:31;16.57;;;12.87;;
8458;SDS011;4266;48.816;9.154;2023-12-07T05:52:57;16.50;;;11.40;;
8458;SDS011;4266;48.816;9.154;2023-12-07T05:55:23;14.13;;;12.40;;
8458;SDS011;4266;48.816;9.154;2023-12-07T05:57:48;13.57;;;11.53;;
8458;SDS011;4266;48.816;9.154;2023-12-07T06:00:14;14.77;;;11.93;;
8458;SDS011;4266;48.816;9.154;2023-12-07T06:02:41;12.67;;;11.33;;
8458;SDS011;4266;48.816;9.154;2023-12-07T06:05:07;14.77;;;11.00;;
8458;SDS011;4266;48.816;9.154;2023-12-07T06:07:33;12.80;;;10.73;;
8458;SDS011;4266;48.816;9.154;2023-12-07T06:09:59;12.57;;;11.27;;
8458;SDS011;4266;48.816;9.154;2023-12-07T06:12:25;12.60;;;11.30;;
8458;SDS011;4266;48.816;9.154;2023-12-07T06:14:50;12.80;;;11.50;;
8458;SDS011;4266;48.816;9.154;2023-12-07T06:17:17;15.47;;;11.30;;
8458;SDS011;4266;48.816;9.154;2023-12-07T06:19:43;14.53;;;11.43;;
8458;SDS011;4266;48.816;9.154;2023-12-07T06:22:09;15.03;;;11.97;;
8458;SDS011;4266;48.816;9.154;2023-12-07T06:24:34;14.70;;;11.37;;
8458;SDS011;4266;48.816;9.154;2023-12-07T06:27:01;14.83;;;11.97;;
8458;SDS011;4266;48.816;9.154;2023-12-07T06:29:26;16.83;;;12.27;;
8458;SDS011;4266;48.816;9.154;2023-12-07T06:31:51;15.33;;;12.73;;
8458;SDS011;4266;48.816;9.154;2023-12-07T06:34:17;20.10;;;12.43;;
8458;SDS011;4266;48.816;9.154;2023-12-07T06:36:43;17.73;;;13.10;;
8458;SDS011;4266;48.816;9.154;2023-12-07T06:39:09;15.20;;;11.57;;
8458;SDS011;4266;48.816;9.154;2023-12-07T06:41:35;15.20;;;13.00;;
8458;SDS011;4266;48.816;9.154;2023-12-07T06:44:00;15.77;;;12.13;;
8458;SDS011;4266;48.816;9.154;2023-12-07T06:46:26;17.77;;;12.53;;
8458;SDS011;4266;48.816;9.154;2023-12-07T06:48:52;19.63;;;13.43;;
8458;SDS011;4266;48.816;9.154;2023-12-07T06:51:17;17.90;;;12.50;;
8458;SDS011;4266;48.816;9.154;2023-12-07T06:53:43;15.13;;;12.37;;
8458;SDS011;4266;48.816;9.154;2023-12-07T06:56:09;15.30;;;12.33;;
8458;SDS011;4266;48.816;9.154;2023-12-07T06:58:34;16.27;;;12.63;;
8458;SDS011;4266;48.816;9.154;2023-12-07T07:01:00;14.50;;;12.73;;
8458;SDS011;4266;48.816;9.154;2023-12-07T07:03:26;18.50;;;13.30;;
8458;SDS011;4266;48.816;9.154;2023-12-07T07:05:51;17.27;;;13.07;;
8458;SDS011;4266;48.816;9.154;2023-12-07T07:08:17;16.00;;;12.50;;
8458;SDS011;4266;48.816;9.154;2023-12-07T07:10:43;14.07;;;12.57;;
8458;SDS011;4266;48.816;9.154;2023-12-07T07:13:08;14.37;;;11.47;;
8458;SDS011;4266;48.816;9.154;2023-12-07T07:15:34;13.90;;;12.30;;
8458;SDS011;4266;48.816;9.154;2023-12-07T07:18:00;18.83;;;13.83;;
8458;SDS011;4266;48.816;9.154;2023-12-07T07:20:26;15.33;;;13.13;;
8458;SDS011;4266;48.816;9.154;2023-12-07T07:22:52;16.93;;;13.23;;
8458;SDS011;4266;48.816;9.154;2023-12-07T07:25:18;14.20;;;12.70;;
8458;SDS011;4266;48.816;9.154;2023-12-07T07:27:45;16.60;;;12.50;;
8458;SDS011;4266;48.816;9.154;2023-12-07T07:30:11;22.70;;;16.10;;
8458;SDS011;4266;48.816;9.154;2023-12-07T07:32:37;20.67;;;15.40;;
8458;SDS011;4266;48.816;9.154;2023-12-07T07:35:03;18.07;;;14.53;;
8458;SDS011;4266;48.816;9.154;2023-12-07T07:37:29;19.83;;;16.23;;
8458;SDS011;4266;48.816;9.154;2023-12-07T07:39:55;20.47;;;15.00;;
8458;SDS011;4266;48.816;9.154;2023-12-07T07:42:21;17.00;;;14.13;;
8458;SDS011;4266;48.816;9.154;2023-12-07T07:44:47;15.77;;;13.63;;
8458;SDS011;4266;48.816;9.154;2023-12-07T07:47:13;16.77;;;13.13;;
8458;SDS011;4266;48.816;9.154;2023-12-07T07:49:38;12.90;;;11.70;;
8458;SDS011;4266;48.816;9.154;2023-12-07T07:52:04;12.83;;;11.63;;
8458;SDS011;4266;48.816;9.154;2023-12-07T07:54:30;13.57;;;12.20;;
8458;SDS011;4266;48.816;9.154;2023-12-07T07:56:55;12.43;;;11.00;;
8458;SDS011;4266;48.816;9.154;2023-12-07T07:59:21;12.10;;;10.93;;
8458;SDS011;4266;48.816;9.154;2023-12-07T08:01:47;13.53;;;11.63;;
8458;SDS011;4266;48.816;9.154;2023-12-07T08:04:13;11.97;;;10.97;;
8458;SDS011;4266;48.816;9.154;2023-12-07T08:06:39;12.25;;;11.07;;
8458;SDS011;4266;48.816;9.154;2023-12-07T08:09:04;12.57;;;11.17;;
8458;SDS011;4266;48.816;9.154;2023-12-07T08:11:30;11.27;;;10.17;;
8458;SDS011;4266;48.816;9.154;2023-12-07T08:13:56;12.23;;;11.07;;
8458;SDS011;4266;48.816;9.154;2023-12-07T08:16:22;13.70;;;10.77;;
8458;SDS011;4266;48.816;9.154;2023-12-07T08:18:47;16.23;;;10.80;;
8458;SDS011;4266;48.816;9.154;2023-12-07T08:21:20;11.87;;;10.57;;
8458;SDS011;4266;48.816;9.154;2023-12-07T08:23:46;11.30;;;10.20;;
8458;SDS011;4266;48.816;9.154;2023-12-07T08:26:12;12.47;;;11.13;;
8458;SDS011;4266;48.816;9.154;2023-12-07T08:28:38;12.70;;;10.33;;
8458;SDS011;4266;48.816;9.154;2023-12-07T08:31:03;11.87;;;10.40;;
8458;SDS011;4266;48.816;9.154;2023-12-07T08:33:29;14.17;;;10.87;;
8458;SDS011;4266;48.816;9.154;2023-12-07T08:35:55;12.73;;;10.27;;
8458;SDS011;4266;48.816;9.154;2023-12-07T08:38:22;12.77;;;11.33;;
8458;SDS011;4266;48.816;9.154;2023-12-07T08:40:48;10.97;;;9.97;;
8458;SDS011;4266;48.816;9.154;2023-12-07T08:43:13;12.33;;;10.67;;
8458;SDS011;4266;48.816;9.154;2023-12-07T08:45:39;13.60;;;11.03;;
8458;SDS011;4266;48.816;9.154;2023-12-07T08:48:05;17.35;;;12.50;;
8458;SDS011;4266;48.816;9.154;2023-12-07T08:50:31;13.63;;;11.67;;
8458;SDS011;4266;48.816;9.154;2023-12-07T08:52:56;14.73;;;11.68;;
8458;SDS011;4266;48.816;9.154;2023-12-07T08:55:22;11.40;;;10.25;;
8458;SDS011;4266;48.816;9.154;2023-12-07T08:57:48;11.52;;;10.45;;
8458;SDS011;4266;48.816;9.154;2023-12-07T09:00:14;12.82;;;11.63;;
8458;SDS011;4266;48.816;9.154;2023-12-07T09:02:40;13.05;;;11.68;;
8458;SDS011;4266;48.816;9.154;2023-12-07T09:05:06;11.63;;;10.52;;
8458;SDS011;4266;48.816;9.154;2023-12-07T09:07:32;12.23;;;11.12;;
8458;SDS011;4266;48.816;9.154;2023-12-07T09:09:58;11.95;;;10.93;;
8458;SDS011;4266;48.816;9.154;2023-12-07T09:12:24;16.80;;;12.00;;
8458;SDS011;4266;48.816;9.154;2023-12-07T09:14:50;15.10;;;11.02;;
8458;SDS011;4266;48.816;9.154;2023-12-07T09:17:16;21.12;;;12.35;;
8458;SDS011;4266;48.816;9.154;2023-12-07T09:19:42;13.13;;;11.73;;
8458;SDS011;4266;48.816;9.154;2023-12-07T09:22:08;11.95;;;10.80;;
8458;SDS011;4266;48.816;9.154;2023-12-07T09:24:34;13.35;;;11.93;;
8458;SDS011;4266;48.816;9.154;2023-12-07T09:26:59;12.85;;;11.57;;
8458;SDS011;4266;48.816;9.154;2023-12-07T09:29:25;17.55;;;12.65;;
8458;SDS011;4266;48.816;9.154;2023-12-07T09:31:51;15.90;;;13.10;;
8458;SDS011;4266;48.816;9.154;2023-12-07T09:34:16;14.10;;;12.70;;
8458;SDS011;4266;48.816;9.154;2023-12-07T09:36:44;14.95;;;13.18;;
8458;SDS011;4266;48.816;9.154;2023-12-07T09:39:09;16.73;;;12.73;;
8458;SDS011;4266;48.816;9.154;2023-12-07T09:41:35;16.73;;;12.48;;
8458;SDS011;4266;48.816;9.154;2023-12-07T09:44:01;14.38;;;12.48;;
8458;SDS011;4266;48.816;9.154;2023-12-07T09:46:26;17.40;;;13.20;;
8458;SDS011;4266;48.816;9.154;2023-12-07T09:48:52;17.90;;;13.57;;
8458;SDS011;4266;48.816;9.154;2023-12-07T09:51:18;15.35;;;13.27;;
8458;SDS011;4266;48.816;9.154;2023-12-07T09:53:43;16.33;;;12.90;;
8458;SDS011;4266;48.816;9.154;2023-12-07T09:56:10;16.05;;;12.27;;
8458;SDS011;4266;48.816;9.154;2023-12-07T09:58:35;13.57;;;12.27;;
8458;SDS011;4266;48.816;9.154;2023-12-07T10:01:01;15.02;;;11.77;;
8458;SDS011;4266;48.816;9.154;2023-12-07T10:03:27;12.75;;;11.45;;
8458;SDS011;4266;48.816;9.154;2023-12-07T10:05:54;15.88;;;11.25;;
8458;SDS011;4266;48.816;9.154;2023-12-07T10:13:28;15.48;;;11.73;;
8458;SDS011;4266;48.816;9.154;2023-12-07T10:16:04;11.77;;;10.63;;
8458;SDS011;4266;48.816;9.154;2023-12-07T10:18:22;13.73;;;11.35;;
8458;SDS011;4266;48.816;9.154;2023-12-07T10:20:45;15.02;;;11.57;;
8458;SDS011;4266;48.816;9.154;2023-12-07T10:23:10;12.52;;;11.18;;
8458;SDS011;4266;48.816;9.154;2023-12-07T10:25:37;12.35;;;10.73;;
8458;SDS011;4266;48.816;9.154;2023-12-07T10:28:03;12.85;;;11.40;;
8458;SDS011;4266;48.816;9.154;2023-12-07T10:30:30;11.60;;;10.50;;
8458;SDS011;4266;48.816;9.154;2023-12-07T10:32:57;13.90;;;10.40;;
8458;SDS011;4266;48.816;9.154;2023-12-07T10:35:22;15.10;;;11.15;;
8458;SDS011;4266;48.816;9.154;2023-12-07T10:37:49;11.45;;;10.35;;
8458;SDS011;4266;48.816;9.154;2023-12-07T10:40:15;12.45;;;11.20;;
8458;SDS011;4266;48.816;9.154;2023-12-07T10:42:41;11.35;;;10.25;;
8458;SDS011;4266;48.816;9.154;2023-12-07T10:45:07;10.80;;;9.70;;
8458;SDS011;4266;48.816;9.154;2023-12-07T10:47:36;12.32;;;11.23;;
8458;SDS011;4266;48.816;9.154;2023-12-07T10:50:02;11.85;;;9.93;;
8458;SDS011;4266;48.816;9.154;2023-12-07T10:52:27;11.95;;;9.95;;
8458;SDS011;4266;48.816;9.154;2023-12-07T10:54:54;9.95;;;9.10;;
8458;SDS011;4266;48.816;9.154;2023-12-07T10:57:20;10.63;;;9.60;;
8458;SDS011;4266;48.816;9.154;2023-12-07T10:59:46;10.88;;;9.48;;
8458;SDS011;4266;48.816;9.154;2023-12-07T11:02:12;10.48;;;9.50;;
8458;SDS011;4266;48.816;9.154;2023-12-07T11:04:38;10.60;;;9.57;;
8458;SDS011;4266;48.816;9.154;2023-12-07T11:07:07;9.57;;;8.65;;
8458;SDS011;4266;48.816;9.154;2023-12-07T11:09:31;9.82;;;8.93;;
8458;SDS011;4266;48.816;9.154;2023-12-07T11:11:59;11.57;;;9.23;;
8458;SDS011;4266;48.816;9.154;2023-12-07T11:14:23;10.05;;;9.07;;
8458;SDS011;4266;48.816;9.154;2023-12-07T11:16:50;10.57;;;8.82;;
8458;SDS011;4266;48.816;9.154;2023-12-07T11:19:48;9.20;;;8.32;;
8458;SDS011;4266;48.816;9.154;2023-12-07T11:22:13;11.73;;;9.10;;
8458;SDS011;4266;48.816;9.154;2023-12-07T11:27:17;13.20;;;8.75;;
8458;SDS011;4266;48.816;9.154;2023-12-07T11:29:43;10.43;;;9.13;;
8458;SDS011;4266;48.816;9.154;2023-12-07T11:32:09;8.60;;;7.82;;
8458;SDS011;4266;48.816;9.154;2023-12-07T11:34:36;8.90;;;8.05;;
8458;SDS011;4266;48.816;9.154;2023-12-07T11:37:02;9.90;;;8.32;;
8458;SDS011;4266;48.816;9.154;2023-12-07T11:39:28;9.77;;;7.78;;
8458;SDS011;4266;48.816;9.154;2023-12-07T11:41:53;8.77;;;7.80;;
8458;SDS011;4266;48.816;9.154;2023-12-07T11:44:19;8.65;;;7.95;;
8458;SDS011;4266;48.816;9.154;2023-12-07T11:46:45;10.50;;;8.15;;
8458;SDS011;4266;48.816;9.154;2023-12-07T11:49:12;7.18;;;6.62;;
8458;SDS011;4266;48.816;9.154;2023-12-07T11:51:37;9.07;;;6.60;;
8458;SDS011;4266;48.816;9.154;2023-12-07T11:54:03;7.25;;;6.65;;
8458;SDS011;4266;48.816;9.154;2023-12-07T11:56:29;7.28;;;6.37;;
8458;SDS011;4266;48.816;9.154;2023-12-07T11:58:55;8.15;;;7.35;;
8458;SDS011;4266;48.816;9.154;2023-12-07T12:01:21;8.23;;;7.37;;
8458;SDS011;4266;48.816;9.154;2023-12-07T12:03:47;8.45;;;7.62;;
8458;SDS011;4266;48.816;9.154;2023-12-07T12:06:13;8.57;;;7.60;;
8458;SDS011;4266;48.816;9.154;2023-12-07T12:08:40;7.55;;;6.90;;
8458;SDS011;4266;48.816;9.154;2023-12-07T12:11:06;10.07;;;7.03;;
8458;SDS011;4266;48.816;9.154;2023-12-07T12:13:33;9.15;;;7.12;;
8458;SDS011;4266;48.816;9.154;2023-12-07T12:15:59;7.68;;;6.97;;
8458;SDS011;4266;48.816;9.154;2023-12-07T12:18:25;8.65;;;7.18;;
8458;SDS011;4266;48.816;9.154;2023-12-07T12:20:50;10.70;;;7.57;;
8458;SDS011;4266;48.816;9.154;2023-12-07T12:23:16;8.77;;;7.40;;
8458;SDS011;4266;48.816;9.154;2023-12-07T12:25:42;9.65;;;7.90;;
8458;SDS011;4266;48.816;9.154;2023-12-07T12:28:08;12.13;;;7.78;;
8458;SDS011;4266;48.816;9.154;2023-12-07T12:30:33;9.48;;;7.25;;
8458;SDS011;4266;48.816;9.154;2023-12-07T12:33:00;7.85;;;7.05;;
8458;SDS011;4266;48.816;9.154;2023-12-07T12:35:26;8.60;;;6.47;;
8458;SDS011;4266;48.816;9.154;2023-12-07T12:37:52;7.53;;;6.80;;
8458;SDS011;4266;48.816;9.154;2023-12-07T12:40:19;8.98;;;7.15;;
8458;SDS011;4266;48.816;9.154;2023-12-07T12:42:45;7.05;;;6.37;;
8458;SDS011;4266;48.816;9.154;2023-12-07T12:45:10;8.32;;;6.47;;
8458;SDS011;4266;48.816;9.154;2023-12-07T12:47:36;6.57;;;5.97;;
8458;SDS011;4266;48.816;9.154;2023-12-07T12:50:02;8.68;;;6.28;;
8458;SDS011;4266;48.816;9.154;2023-12-07T12:52:27;7.22;;;6.55;;
8458;SDS011;4266;48.816;9.154;2023-12-07T12:54:54;6.90;;;6.30;;
8458;SDS011;4266;48.816;9.154;2023-12-07T12:57:18;6.60;;;6.10;;
8458;SDS011;4266;48.816;9.154;2023-12-07T12:59:44;12.03;;;6.60;;
8458;SDS011;4266;48.816;9.154;2023-12-07T13:02:11;11.27;;;6.30;;
8458;SDS011;4266;48.816;9.154;2023-12-07T13:04:37;6.23;;;5.70;;
8458;SDS011;4266;48.816;9.154;2023-12-07T13:07:02;7.10;;;6.50;;
8458;SDS011;4266;48.816;9.154;2023-12-07T13:09:28;7.60;;;7.00;;
8458;SDS011;4266;48.816;9.154;2023-12-07T13:11:54;7.67;;;7.07;;
8458;SDS011;4266;48.816;9.154;2023-12-07T13:14:19;6.40;;;5.90;;
8458;SDS011;4266;48.816;9.154;2023-12-07T13:16:45;6.93;;;6.13;;
8458;SDS011;4266;48.816;9.154;2023-12-07T13:19:11;7.47;;;6.77;;
8458;SDS011;4266;48.816;9.154;2023-12-07T13:21:37;10.33;;;6.23;;
8458;SDS011;4266;48.816;9.154;2023-12-07T13:24:03;7.03;;;6.33;;
8458;SDS011;4266;48.816;9.154;2023-12-07T13:26:28;7.80;;;7.10;;
8458;SDS011;4266;48.816;9.154;2023-12-07T13:28:54;7.63;;;7.03;;
8458;SDS011;4266;48.816;9.154;2023-12-07T13:31:20;10.40;;;7.50;;
8458;SDS011;4266;48.816;9.154;2023-12-07T13:33:46;9.73;;;7.90;;
8458;SDS011;4266;48.816;9.154;2023-12-07T13:36:11;8.23;;;7.53;;
8458;SDS011;4266;48.816;9.154;2023-12-07T13:38:37;8.13;;;7.20;;
8458;SDS011;4266;48.816;9.154;2023-12-07T13:41:03;10.70;;;7.25;;
8458;SDS011;4266;48.816;9.154;2023-12-07T13:43:29;7.93;;;7.18;;
8458;SDS011;4266;48.816;9.154;2023-12-07T13:45:54;9.65;;;7.35;;
8458;SDS011;4266;48.816;9.154;2023-12-07T13:48:20;7.50;;;6.80;;
8458;SDS011;4266;48.816;9.154;2023-12-07T13:50:47;8.40;;;7.30;;
8458;SDS011;4266;48.816;9.154;2023-12-07T13:53:12;8.00;;;7.30;;
8458;SDS011;4266;48.816;9.154;2023-12-07T13:55:39;8.37;;;6.83;;
8458;SDS011;4266;48.816;9.154;2023-12-07T13:58:05;7.90;;;7.07;;
8458;SDS011;4266;48.816;9.154;2023-12-07T14:00:31;7.43;;;6.83;;
8458;SDS011;4266;48.816;9.154;2023-12-07T14:02:58;8.35;;;6.97;;
8458;SDS011;4266;48.816;9.154;2023-12-07T14:05:23;9.95;;;7.72;;
8458;SDS011;4266;48.816;9.154;2023-12-07T14:07:49;8.30;;;7.47;;
8458;SDS011;4266;48.816;9.154;2023-12-07T14:10:15;8.20;;;7.30;;
8458;SDS011;4266;48.816;9.154;2023-12-07T14:12:40;8.57;;;7.03;;
8458;SDS011;4266;48.816;9.154;2023-12-07T14:15:07;7.03;;;6.45;;
8458;SDS011;4266;48.816;9.154;2023-12-07T14:17:34;6.80;;;6.22;;
8458;SDS011;4266;48.816;9.154;2023-12-07T14:20:00;8.23;;;6.73;;
8458;SDS011;4266;48.816;9.154;2023-12-07T14:22:25;6.57;;;5.75;;
8458;SDS011;4266;48.816;9.154;2023-12-07T14:24:51;5.87;;;5.45;;
8458;SDS011;4266;48.816;9.154;2023-12-07T14:27:17;5.70;;;5.20;;
8458;SDS011;4266;48.816;9.154;2023-12-07T14:29:43;5.10;;;4.60;;
8458;SDS011;4266;48.816;9.154;2023-12-07T14:32:09;6.10;;;4.70;;
8458;SDS011;4266;48.816;9.154;2023-12-07T14:34:35;5.45;;;4.80;;
8458;SDS011;4266;48.816;9.154;2023-12-07T14:37:01;8.18;;;4.70;;
8458;SDS011;4266;48.816;9.154;2023-12-07T14:39:26;5.07;;;4.57;;
8458;SDS011;4266;48.816;9.154;2023-12-07T14:41:52;4.80;;;4.40;;
8458;SDS011;4266;48.816;9.154;2023-12-07T14:44:18;4.67;;;4.27;;
8458;SDS011;4266;48.816;9.154;2023-12-07T14:46:44;4.20;;;3.90;;
8458;SDS011;4266;48.816;9.154;2023-12-07T14:49:12;4.17;;;3.87;;
8458;SDS011;4266;48.816;9.154;2023-12-07T14:51:36;4.68;;;4.00;;
8458;SDS011;4266;48.816;9.154;2023-12-07T14:54:02;4.32;;;3.92;;
8458;SDS011;4266;48.816;9.154;2023-12-07T14:56:27;4.43;;;3.73;;
8458;SDS011;4266;48.816;9.154;2023-12-07T14:58:54;4.33;;;3.97;;
8458;SDS011;4266;48.816;9.154;2023-12-07T15:01:20;4.93;;;4.20;;